Time;durP1;ratioP1;P1;durP2;ratioP2;P2;SDS_P1;SDS_P2;PMS_P1;PMS_P2;Temp;Humidity;BMP_temperature;BMP_pressure;BME280_temperature;BME280_humidity;BME280_pressure;Samples;Min_cycle;Max_cycle;Signal;HPM_P1;HPM_P2
2022/02/24 00:00:19;;;;;;;5.90;1.48;;;;;;;;;;6216932;23;20165;-65
2022/02/24 00:02:45;;;;;;;3.88;1.50;;;;;;;;;;6216907;23;20557;-65
2022/02/24 00:05:11;;;;;;;8.27;1.42;;;;;;;;;;6216853;23;20439;-65
2022/02/24 00:07:38;;;;;;;5.95;1.90;;;;;;;;;;6217340;23;20145;-65
2022/02/24 00:10:05;;;;;;;8.18;1.83;;;;;;;;;;6217015;23;20175;-65
2022/02/24 00:12:31;;;;;;;7.45;1.90;;;;;;;;;;6216868;23;20561;-65
2022/02/24 00:14:57;;;;;;;5.60;1.77;;;;;;;;;;6217047;23;20224;-65
2022/02/24 00:17:23;;;;;;;5.55;1.42;;;;;;;;;;6217270;23;20176;-65
2022/02/24 00:19:49;;;;;;;8.00;1.92;;;;;;;;;;6216691;23;20526;-65
2022/02/24 00:22:15;;;;;;;8.65;1.98;;;;;;;;;;6216763;23;20164;-65
2022/02/24 00:24:41;;;;;;;4.95;1.80;;;;;;;;;;6217190;23;20148;-65
2022/02/24 00:27:07;;;;;;;5.28;1.65;;;;;;;;;;6217027;23;20137;-65
2022/02/24 00:29:33;;;;;;;5.35;1.70;;;;;;;;;;6216671;23;20195;-65
2022/02/24 00:31:59;;;;;;;5.10;1.63;;;;;;;;;;6216429;23;20165;-65
2022/02/24 00:34:25;;;;;;;6.95;1.88;;;;;;;;;;6216580;23;20141;-65
2022/02/24 00:36:52;;;;;;;7.60;1.80;;;;;;;;;;6216563;23;20168;-65
2022/02/24 00:39:18;;;;;;;5.03;1.90;;;;;;;;;;6216983;23;20156;-65
2022/02/24 00:41:44;;;;;;;5.85;1.95;;;;;;;;;;6216450;23;20165;-65
2022/02/24 00:44:10;;;;;;;10.77;2.25;;;;;;;;;;6216620;23;20512;-65
2022/02/24 00:46:36;;;;;;;5.78;1.70;;;;;;;;;;6216461;23;20163;-65
2022/02/24 00:49:02;;;;;;;4.82;1.85;;;;;;;;;;6216497;23;20565;-66
2022/02/24 00:51:28;;;;;;;6.78;1.67;;;;;;;;;;6216159;23;20152;-65
2022/02/24 00:53:54;;;;;;;6.47;2.50;;;;;;;;;;6216768;23;20545;-65
2022/02/24 00:56:20;;;;;;;5.80;1.88;;;;;;;;;;6216330;23;20454;-65
2022/02/24 00:58:46;;;;;;;3.67;1.90;;;;;;;;;;6216456;23;20148;-65
2022/02/24 01:01:12;;;;;;;5.55;2.00;;;;;;;;;;6216174;23;20165;-65
2022/02/24 01:03:38;;;;;;;3.47;1.70;;;;;;;;;;6216719;23;20141;-65
2022/02/24 01:06:04;;;;;;;4.32;1.92;;;;;;;;;;6216896;23;20173;-65
2022/02/24 01:08:29;;;;;;;5.90;2.08;;;;;;;;;;6216565;23;20496;-65
2022/02/24 01:10:55;;;;;;;2.70;1.65;;;;;;;;;;6216293;23;20495;-65
2022/02/24 01:13:22;;;;;;;3.42;1.70;;;;;;;;;;6216371;23;20145;-65
2022/02/24 01:15:48;;;;;;;4.75;1.75;;;;;;;;;;6216226;23;20596;-65
2022/02/24 01:18:13;;;;;;;4.70;1.92;;;;;;;;;;6216804;23;20561;-65
2022/02/24 01:20:39;;;;;;;5.82;1.88;;;;;;;;;;6216118;23;20165;-65
2022/02/24 01:23:06;;;;;;;6.97;2.25;;;;;;;;;;6216362;23;20141;-65
2022/02/24 01:25:32;;;;;;;5.15;1.83;;;;;;;;;;6216513;23;20144;-65
2022/02/24 01:27:59;;;;;;;4.75;2.10;;;;;;;;;;6216774;23;20155;-65
2022/02/24 01:30:25;;;;;;;4.57;1.92;;;;;;;;;;6216312;23;20175;-65
2022/02/24 01:32:51;;;;;;;5.65;2.42;;;;;;;;;;6216263;23;20164;-65
2022/02/24 01:35:17;;;;;;;4.22;1.63;;;;;;;;;;6216252;23;20584;-64
2022/02/24 01:37:45;;;;;;;5.65;1.92;;;;;;;;;;6216173;23;20145;-64
2022/02/24 01:40:11;;;;;;;5.15;2.10;;;;;;;;;;6216426;23;20164;-65
2022/02/24 01:42:37;;;;;;;6.78;2.30;;;;;;;;;;6214851;23;20145;-65
2022/02/24 01:45:03;;;;;;;5.75;1.73;;;;;;;;;;6216280;23;20224;-64
2022/02/24 01:47:29;;;;;;;6.55;1.85;;;;;;;;;;6216466;23;20179;-64
2022/02/24 01:49:55;;;;;;;5.05;1.75;;;;;;;;;;6216788;23;20153;-65
2022/02/24 01:52:22;;;;;;;5.25;1.83;;;;;;;;;;6216491;23;20145;-65
2022/02/24 01:54:49;;;;;;;2.53;1.40;;;;;;;;;;6216447;23;20179;-65
2022/02/24 01:57:15;;;;;;;6.00;2.05;;;;;;;;;;6216264;23;20409;-66
2022/02/24 01:59:41;;;;;;;5.72;1.73;;;;;;;;;;6216262;23;20160;-65
2022/02/24 02:02:07;;;;;;;3.85;1.60;;;;;;;;;;6216147;23;20149;-65
2022/02/24 02:04:34;;;;;;;4.90;1.85;;;;;;;;;;6217595;23;20581;-64
2022/02/24 02:07:00;;;;;;;6.00;1.98;;;;;;;;;;6218335;23;20156;-65
2022/02/24 02:09:26;;;;;;;5.10;1.92;;;;;;;;;;6218595;23;20141;-65
2022/02/24 02:11:52;;;;;;;2.90;1.38;;;;;;;;;;6218163;23;20145;-65
2022/02/24 02:14:18;;;;;;;4.85;1.60;;;;;;;;;;6218059;23;20151;-65
2022/02/24 02:16:48;;;;;;;4.63;1.30;;;;;;;;;;6218010;23;20561;-65
2022/02/24 02:19:14;;;;;;;6.00;1.60;;;;;;;;;;6218502;23;20145;-64
2022/02/24 02:21:40;;;;;;;5.80;1.60;;;;;;;;;;6217790;23;20181;-65
2022/02/24 02:24:06;;;;;;;8.13;1.70;;;;;;;;;;6217807;23;20141;-65
2022/02/24 02:26:32;;;;;;;7.88;2.05;;;;;;;;;;6218074;23;20145;-65
2022/02/24 02:28:59;;;;;;;5.50;1.58;;;;;;;;;;6217878;23;20191;-65
2022/02/24 02:31:25;;;;;;;4.22;1.65;;;;;;;;;;6217756;23;20161;-65
2022/02/24 02:33:59;;;;;;;8.18;1.90;;;;;;;;;;6218033;23;20242;-65
2022/02/24 02:36:25;;;;;;;3.90;1.50;;;;;;;;;;6217814;23;20140;-65
2022/02/24 02:38:51;;;;;;;3.25;1.33;;;;;;;;;;6217618;23;20141;-65
2022/02/24 02:41:17;;;;;;;3.38;1.40;;;;;;;;;;6217665;23;20164;-65
2022/02/24 02:43:43;;;;;;;4.57;1.60;;;;;;;;;;6217980;23;20808;-65
2022/02/24 02:46:10;;;;;;;5.88;1.52;;;;;;;;;;6217685;23;20227;-65
2022/02/24 02:48:36;;;;;;;3.17;1.73;;;;;;;;;;6217911;23;20209;-65
2022/02/24 02:51:02;;;;;;;5.28;1.65;;;;;;;;;;6217708;23;20474;-65
2022/02/24 02:53:28;;;;;;;4.82;1.73;;;;;;;;;;6217847;23;20141;-65
2022/02/24 02:55:54;;;;;;;3.83;1.60;;;;;;;;;;6217872;23;20493;-65
2022/02/24 02:58:20;;;;;;;5.28;1.60;;;;;;;;;;6217881;23;20149;-65
2022/02/24 03:00:46;;;;;;;4.78;1.52;;;;;;;;;;6217874;23;20195;-65
2022/02/24 03:03:12;;;;;;;3.38;1.58;;;;;;;;;;6217897;23;20173;-65
2022/02/24 03:05:38;;;;;;;3.45;1.63;;;;;;;;;;6217853;23;20198;-65
2022/02/24 03:08:06;;;;;;;6.28;1.52;;;;;;;;;;6217437;23;20183;-64
2022/02/24 03:10:32;;;;;;;3.95;1.70;;;;;;;;;;6217986;23;20228;-65
2022/02/24 03:12:58;;;;;;;3.60;1.60;;;;;;;;;;6218212;23;20576;-65
2022/02/24 03:15:24;;;;;;;5.63;1.50;;;;;;;;;;6218846;23;20554;-65
2022/02/24 03:17:50;;;;;;;3.28;1.38;;;;;;;;;;6218299;23;20206;-65
2022/02/24 03:20:16;;;;;;;5.32;1.63;;;;;;;;;;6218592;23;20180;-65
2022/02/24 03:22:43;;;;;;;4.22;1.50;;;;;;;;;;6218186;23;20179;-65
2022/02/24 03:25:09;;;;;;;3.88;1.52;;;;;;;;;;6217716;23;20137;-65
2022/02/24 03:27:35;;;;;;;3.83;1.60;;;;;;;;;;6217871;23;20145;-65
2022/02/24 03:30:01;;;;;;;4.40;1.40;;;;;;;;;;6218490;23;20167;-65
2022/02/24 03:32:27;;;;;;;4.43;1.55;;;;;;;;;;6217929;23;20231;-65
2022/02/24 03:34:53;;;;;;;4.20;1.75;;;;;;;;;;6218229;23;20181;-65
2022/02/24 03:37:19;;;;;;;7.07;1.88;;;;;;;;;;6217628;23;20133;-65
2022/02/24 03:39:45;;;;;;;4.03;1.70;;;;;;;;;;6217506;23;20141;-65
2022/02/24 03:42:10;;;;;;;4.03;1.50;;;;;;;;;;6217249;23;20526;-65
2022/02/24 03:44:36;;;;;;;4.43;1.40;;;;;;;;;;6217257;23;20228;-65
2022/02/24 03:47:02;;;;;;;3.25;1.35;;;;;;;;;;6217556;23;20156;-65
2022/02/24 03:49:28;;;;;;;5.43;1.67;;;;;;;;;;6217001;23;20194;-65
2022/02/24 03:51:54;;;;;;;5.70;1.55;;;;;;;;;;6217249;23;20171;-65
2022/02/24 03:54:20;;;;;;;6.45;1.85;;;;;;;;;;6216976;23;20153;-65
2022/02/24 03:56:46;;;;;;;3.13;1.52;;;;;;;;;;6218011;23;20160;-65
2022/02/24 03:59:12;;;;;;;3.97;1.50;;;;;;;;;;6217202;23;20144;-65
2022/02/24 04:01:38;;;;;;;6.97;1.92;;;;;;;;;;6216817;23;20161;-65
2022/02/24 04:04:04;;;;;;;3.35;1.58;;;;;;;;;;6217246;23;20541;-65
2022/02/24 04:06:30;;;;;;;5.95;1.88;;;;;;;;;;6217317;23;20140;-65
2022/02/24 04:08:56;;;;;;;3.70;1.40;;;;;;;;;;6217341;23;20147;-65
2022/02/24 04:11:22;;;;;;;6.20;1.80;;;;;;;;;;6216882;23;20168;-65
2022/02/24 04:13:48;;;;;;;3.28;1.52;;;;;;;;;;6217111;23;20455;-65
2022/02/24 04:16:14;;;;;;;6.13;1.80;;;;;;;;;;6216834;23;20231;-65
2022/02/24 04:18:40;;;;;;;3.78;1.50;;;;;;;;;;6216669;23;20151;-65
2022/02/24 04:21:06;;;;;;;4.03;1.48;;;;;;;;;;6216647;23;20165;-65
2022/02/24 04:23:32;;;;;;;2.90;1.38;;;;;;;;;;6216983;23;20141;-65
2022/02/24 04:25:58;;;;;;;3.00;1.58;;;;;;;;;;6216310;23;20138;-65
2022/02/24 04:28:24;;;;;;;4.50;1.75;;;;;;;;;;6216523;23;20140;-65
2022/02/24 04:30:50;;;;;;;3.05;1.52;;;;;;;;;;6216449;23;20145;-65
2022/02/24 04:33:16;;;;;;;3.72;1.48;;;;;;;;;;6216908;23;20533;-65
2022/02/24 04:35:42;;;;;;;4.28;1.27;;;;;;;;;;6216977;23;20145;-65
2022/02/24 04:38:08;;;;;;;7.18;1.60;;;;;;;;;;6216418;23;20148;-65
2022/02/24 04:40:34;;;;;;;5.55;1.60;;;;;;;;;;6216809;23;20165;-65
2022/02/24 04:43:00;;;;;;;5.13;1.90;;;;;;;;;;6216821;23;20497;-65
2022/02/24 04:45:27;;;;;;;5.10;1.70;;;;;;;;;;6216766;23;20165;-65
2022/02/24 04:47:53;;;;;;;4.75;1.75;;;;;;;;;;6216379;23;20151;-65
2022/02/24 04:50:19;;;;;;;5.97;1.55;;;;;;;;;;6216485;23;20155;-65
2022/02/24 04:52:44;;;;;;;7.18;1.92;;;;;;;;;;6216451;23;20255;-65
2022/02/24 04:55:11;;;;;;;5.45;1.90;;;;;;;;;;6216244;23;20145;-64
2022/02/24 04:57:37;;;;;;;5.97;1.80;;;;;;;;;;6216784;23;20140;-64
2022/02/24 05:00:04;;;;;;;3.60;1.50;;;;;;;;;;6216208;23;20145;-64
2022/02/24 05:02:30;;;;;;;4.10;1.90;;;;;;;;;;6216425;23;20145;-65
2022/02/24 05:04:56;;;;;;;3.53;1.52;;;;;;;;;;6216215;23;20141;-66
2022/02/24 05:07:22;;;;;;;4.57;1.80;;;;;;;;;;6216355;23;20137;-66
2022/02/24 05:09:48;;;;;;;4.68;1.70;;;;;;;;;;6216291;23;20152;-65
2022/02/24 05:12:14;;;;;;;6.10;1.98;;;;;;;;;;6216616;23;20145;-65
2022/02/24 05:14:40;;;;;;;8.15;1.90;;;;;;;;;;6216188;23;20141;-65
2022/02/24 05:17:06;;;;;;;4.55;1.88;;;;;;;;;;6216123;23;20506;-65
2022/02/24 05:19:32;;;;;;;4.13;1.77;;;;;;;;;;6216102;23;20149;-65
2022/02/24 05:21:58;;;;;;;5.18;1.80;;;;;;;;;;6215398;23;20179;-65
2022/02/24 05:24:24;;;;;;;6.65;1.75;;;;;;;;;;6216164;23;20133;-65
2022/02/24 05:26:50;;;;;;;5.43;2.10;;;;;;;;;;6215951;23;20565;-65
2022/02/24 05:29:15;;;;;;;6.53;1.73;;;;;;;;;;6216149;23;20141;-65
2022/02/24 05:31:41;;;;;;;4.95;1.80;;;;;;;;;;6216131;23;20161;-65
2022/02/24 05:34:07;;;;;;;6.22;2.28;;;;;;;;;;6216091;23;20579;-65
2022/02/24 05:36:34;;;;;;;6.50;2.10;;;;;;;;;;6216091;23;20152;-65
2022/02/24 05:39:00;;;;;;;3.15;1.60;;;;;;;;;;6215976;23;20506;-66
2022/02/24 05:41:26;;;;;;;7.00;1.80;;;;;;;;;;6216028;23;20168;-66
2022/02/24 05:43:52;;;;;;;4.70;1.80;;;;;;;;;;6215969;23;20140;-66
2022/02/24 05:46:18;;;;;;;6.35;1.83;;;;;;;;;;6216127;23;20195;-66
2022/02/24 05:48:45;;;;;;;4.45;1.88;;;;;;;;;;6216053;23;20141;-66
2022/02/24 05:51:11;;;;;;;4.43;1.95;;;;;;;;;;6216333;23;20149;-66
2022/02/24 05:53:37;;;;;;;5.22;1.77;;;;;;;;;;6216066;23;20631;-66
2022/02/24 05:56:04;;;;;;;4.18;1.65;;;;;;;;;;6216314;23;20421;-66
2022/02/24 05:58:30;;;;;;;3.65;1.75;;;;;;;;;;6215955;23;20144;-65
2022/02/24 06:00:56;;;;;;;6.13;1.80;;;;;;;;;;6215992;23;20211;-66
2022/02/24 06:03:22;;;;;;;3.08;1.58;;;;;;;;;;6216096;23;20137;-66
2022/02/24 06:05:51;;;;;;;5.10;1.77;;;;;;;;;;6216307;23;20137;-65
2022/02/24 06:08:17;;;;;;;3.55;1.88;;;;;;;;;;6216428;23;20141;-66
2022/02/24 06:10:43;;;;;;;4.95;1.73;;;;;;;;;;6215853;23;20145;-66
2022/02/24 06:13:09;;;;;;;4.38;1.65;;;;;;;;;;6217105;23;20153;-66
2022/02/24 06:15:35;;;;;;;4.93;1.83;;;;;;;;;;6216022;23;20151;-65
2022/02/24 06:18:07;;;;;;;5.10;1.90;;;;;;;;;;6216479;23;20426;-65
2022/02/24 06:20:33;;;;;;;3.35;1.70;;;;;;;;;;6215674;23;20191;-65
2022/02/24 06:22:59;;;;;;;4.93;1.52;;;;;;;;;;6215911;23;20676;-65
2022/02/24 06:25:25;;;;;;;3.17;1.70;;;;;;;;;;6215658;23;20141;-64
2022/02/24 06:27:51;;;;;;;6.07;1.90;;;;;;;;;;6216334;23;20452;-65
2022/02/24 06:30:17;;;;;;;4.82;2.10;;;;;;;;;;6215841;23;20141;-64
2022/02/24 06:32:42;;;;;;;2.28;1.67;;;;;;;;;;6215827;23;20157;-65
2022/02/24 06:35:09;;;;;;;4.13;1.60;;;;;;;;;;6215935;23;20145;-65
2022/02/24 06:37:35;;;;;;;4.25;1.70;;;;;;;;;;6215909;23;20153;-65
2022/02/24 06:40:01;;;;;;;3.30;1.63;;;;;;;;;;6215790;23;20216;-65
2022/02/24 06:42:27;;;;;;;4.28;1.63;;;;;;;;;;6216334;23;20563;-65
2022/02/24 06:44:53;;;;;;;7.32;2.33;;;;;;;;;;6215746;23;20141;-65
2022/02/24 06:47:19;;;;;;;4.55;1.90;;;;;;;;;;6216160;23;20156;-65
2022/02/24 06:49:45;;;;;;;4.55;1.80;;;;;;;;;;6216418;23;20148;-65
2022/02/24 06:52:11;;;;;;;7.68;2.60;;;;;;;;;;6217848;23;20145;-65
2022/02/24 06:54:37;;;;;;;5.13;2.22;;;;;;;;;;6217704;23;20145;-65
2022/02/24 06:57:06;;;;;;;9.07;2.30;;;;;;;;;;6217935;23;20228;-64
2022/02/24 06:59:32;;;;;;;4.25;1.83;;;;;;;;;;6217878;23;20149;-63
2022/02/24 07:01:58;;;;;;;5.40;2.00;;;;;;;;;;6217776;23;20208;-66
2022/02/24 07:04:24;;;;;;;2.42;1.83;;;;;;;;;;6217600;23;20203;-66
2022/02/24 07:06:50;;;;;;;6.20;1.90;;;;;;;;;;6217881;23;20566;-65
2022/02/24 07:09:16;;;;;;;5.97;1.92;;;;;;;;;;6217992;23;20179;-65
2022/02/24 07:11:42;;;;;;;3.92;1.90;;;;;;;;;;6217477;23;20145;-65
2022/02/24 07:14:08;;;;;;;4.53;1.98;;;;;;;;;;6217664;23;20145;-65
2022/02/24 07:16:35;;;;;;;6.50;2.00;;;;;;;;;;6217476;23;20584;-65
2022/02/24 07:19:01;;;;;;;5.43;1.60;;;;;;;;;;6217870;23;20149;-65
2022/02/24 07:21:27;;;;;;;3.53;1.60;;;;;;;;;;6218071;23;20171;-65
2022/02/24 07:23:53;;;;;;;6.15;1.92;;;;;;;;;;6217890;23;20207;-64
2022/02/24 07:26:19;;;;;;;5.90;2.22;;;;;;;;;;6217957;23;20223;-65
2022/02/24 07:28:45;;;;;;;6.00;1.60;;;;;;;;;;6217564;23;20141;-65
2022/02/24 07:31:15;;;;;;;3.63;1.80;;;;;;;;;;6217580;23;20431;-65
2022/02/24 07:33:41;;;;;;;5.43;2.00;;;;;;;;;;6218034;23;20133;-65
2022/02/24 07:36:07;;;;;;;5.75;2.03;;;;;;;;;;6217824;23;20140;-65
2022/02/24 07:38:33;;;;;;;4.28;1.92;;;;;;;;;;6219031;23;20155;-65
2022/02/24 07:40:59;;;;;;;7.20;2.30;;;;;;;;;;6218095;23;20476;-65
2022/02/24 07:43:25;;;;;;;4.50;1.90;;;;;;;;;;6218313;23;20137;-66
2022/02/24 07:45:51;;;;;;;5.65;1.83;;;;;;;;;;6216340;23;20148;-65
2022/02/24 07:48:17;;;;;;;4.55;1.88;;;;;;;;;;6217522;23;20152;-65
2022/02/24 07:50:43;;;;;;;7.18;2.17;;;;;;;;;;6217809;23;20149;-65
2022/02/24 07:53:09;;;;;;;5.18;2.03;;;;;;;;;;6217618;23;20589;-65
2022/02/24 07:55:35;;;;;;;3.55;1.98;;;;;;;;;;6217170;23;20145;-63
2022/02/24 07:58:01;;;;;;;3.35;1.77;;;;;;;;;;6217471;23;20145;-63
2022/02/24 08:00:27;;;;;;;4.50;1.90;;;;;;;;;;6216478;23;20593;-64
2022/02/24 08:02:55;;;;;;;7.75;2.30;;;;;;;;;;6216789;23;20143;-66
2022/02/24 08:05:21;;;;;;;4.65;2.00;;;;;;;;;;6217090;23;20152;-65
2022/02/24 08:07:47;;;;;;;5.28;2.03;;;;;;;;;;6215776;23;20149;-65
2022/02/24 08:10:13;;;;;;;5.78;1.88;;;;;;;;;;6217077;23;20219;-65
2022/02/24 08:12:39;;;;;;;6.00;2.92;;;;;;;;;;6216787;23;20145;-65
2022/02/24 08:15:08;;;;;;;5.78;2.05;;;;;;;;;;6216810;23;20220;-65
2022/02/24 08:17:34;;;;;;;5.60;2.25;;;;;;;;;;6216797;23;20584;-65
2022/02/24 08:20:01;;;;;;;5.78;2.15;;;;;;;;;;6217459;23;20145;-65
2022/02/24 08:22:26;;;;;;;4.43;2.38;;;;;;;;;;6218149;23;20169;-65
2022/02/24 08:24:53;;;;;;;4.72;2.30;;;;;;;;;;6218685;23;20196;-65
2022/02/24 08:27:19;;;;;;;6.68;2.33;;;;;;;;;;6219802;23;20137;-65
2022/02/24 08:29:44;;;;;;;5.75;2.08;;;;;;;;;;6216931;23;20211;-65
2022/02/24 08:32:10;;;;;;;5.55;2.10;;;;;;;;;;6216655;23;20212;-65
2022/02/24 08:34:36;;;;;;;7.60;2.00;;;;;;;;;;6217400;23;20186;-66
2022/02/24 08:37:04;;;;;;;6.70;2.17;;;;;;;;;;6222465;23;20141;-65
2022/02/24 08:39:30;;;;;;;6.53;2.40;;;;;;;;;;6219241;23;20163;-65
2022/02/24 08:41:56;;;;;;;6.80;2.55;;;;;;;;;;6216336;23;20248;-66
2022/02/24 08:44:21;;;;;;;4.82;2.25;;;;;;;;;;6216795;23;20564;-65
2022/02/24 08:46:47;;;;;;;2.95;1.92;;;;;;;;;;6216327;23;20148;-65
2022/02/24 08:49:14;;;;;;;3.97;2.00;;;;;;;;;;6216485;23;20284;-65
2022/02/24 08:51:40;;;;;;;5.38;1.98;;;;;;;;;;6216727;23;20220;-65
2022/02/24 08:54:06;;;;;;;4.78;1.98;;;;;;;;;;6217032;23;20436;-64
2022/02/24 08:56:32;;;;;;;4.28;2.17;;;;;;;;;;6216477;23;20148;-65
2022/02/24 08:58:58;;;;;;;5.07;2.40;;;;;;;;;;6216382;23;20153;-64
2022/02/24 09:01:25;;;;;;;3.58;1.75;;;;;;;;;;6216213;23;20255;-64
2022/02/24 09:03:51;;;;;;;4.65;1.73;;;;;;;;;;6216906;23;20141;-64
2022/02/24 09:06:17;;;;;;;5.30;2.00;;;;;;;;;;6216759;23;20141;-64
2022/02/24 09:08:43;;;;;;;4.03;2.05;;;;;;;;;;6216473;23;20144;-64
2022/02/24 09:11:10;;;;;;;3.80;2.30;;;;;;;;;;6216289;23;20176;-64
2022/02/24 09:13:39;;;;;;;3.65;1.95;;;;;;;;;;6216382;23;20203;-63
2022/02/24 09:16:06;;;;;;;4.55;1.90;;;;;;;;;;6216613;23;20149;-63
2022/02/24 09:18:32;;;;;;;5.38;2.17;;;;;;;;;;6216519;23;20145;-63
2022/02/24 09:20:58;;;;;;;4.53;2.03;;;;;;;;;;6216333;23;20164;-64
2022/02/24 09:23:24;;;;;;;5.43;2.17;;;;;;;;;;6216319;23;20152;-64
2022/02/24 09:25:50;;;;;;;4.68;2.20;;;;;;;;;;6216338;23;20549;-64
2022/02/24 09:28:16;;;;;;;3.38;2.08;;;;;;;;;;6216364;23;20192;-64
2022/02/24 09:30:42;;;;;;;4.82;2.10;;;;;;;;;;6216256;23;20155;-64
2022/02/24 09:33:08;;;;;;;6.63;2.40;;;;;;;;;;6215994;23;20598;-64
2022/02/24 09:35:34;;;;;;;5.72;1.92;;;;;;;;;;6216408;23;20140;-64
2022/02/24 09:38:00;;;;;;;5.78;2.10;;;;;;;;;;6216369;23;20206;-64
2022/02/24 09:40:29;;;;;;;5.03;2.03;;;;;;;;;;6216077;23;20469;-65
2022/02/24 09:42:55;;;;;;;4.00;1.95;;;;;;;;;;6215849;23;20226;-64
2022/02/24 09:45:21;;;;;;;10.32;2.63;;;;;;;;;;6216158;23;20450;-64
2022/02/24 09:47:47;;;;;;;6.50;2.22;;;;;;;;;;6216189;23;20459;-64
2022/02/24 09:50:13;;;;;;;4.57;1.85;;;;;;;;;;6215000;23;20206;-64
2022/02/24 09:52:39;;;;;;;5.85;1.98;;;;;;;;;;6216365;23;20145;-64
2022/02/24 09:55:05;;;;;;;5.22;2.00;;;;;;;;;;6216717;23;20441;-64
2022/02/24 09:57:31;;;;;;;5.72;2.60;;;;;;;;;;6216169;23;20619;-64
2022/02/24 09:59:57;;;;;;;4.93;2.08;;;;;;;;;;6216000;23;20230;-64
2022/02/24 10:02:24;;;;;;;4.85;1.58;;;;;;;;;;6214664;23;20263;-64
2022/02/24 10:05:22;;;;;;;5.03;2.10;;;;;;;;;;6216246;23;20141;-64
2022/02/24 10:07:49;;;;;;;4.05;2.00;;;;;;;;;;6214124;23;20149;-64
2022/02/24 10:10:35;;;;;;;2.95;2.00;;;;;;;;;;6224632;23;20427;-64
2022/02/24 10:13:04;;;;;;;5.60;2.10;;;;;;;;;;6214918;23;20228;-64
2022/02/24 10:15:30;;;;;;;2.67;2.35;;;;;;;;;;6214109;23;20506;-64
2022/02/24 10:18:08;;;;;;;6.45;2.60;;;;;;;;;;6213674;23;20268;-64
2022/02/24 10:20:44;;;;;;;4.63;2.08;;;;;;;;;;6213619;23;20173;-64
2022/02/24 10:23:11;;;;;;;7.20;2.30;;;;;;;;;;6213634;23;20192;-64
2022/02/24 10:25:38;;;;;;;5.70;2.45;;;;;;;;;;6215094;23;20241;-64
2022/02/24 10:28:05;;;;;;;4.47;2.90;;;;;;;;;;6215398;23;20175;-64
2022/02/24 10:30:31;;;;;;;6.18;2.40;;;;;;;;;;6215542;23;20188;-64
2022/02/24 10:32:57;;;;;;;5.65;2.45;;;;;;;;;;6215588;23;20161;-64
2022/02/24 10:35:27;;;;;;;6.13;2.55;;;;;;;;;;6216105;23;20148;-64
2022/02/24 10:37:53;;;;;;;8.15;3.00;;;;;;;;;;6215551;23;20238;-63
2022/02/24 10:40:20;;;;;;;6.05;2.47;;;;;;;;;;6215344;23;20172;-63
2022/02/24 10:42:46;;;;;;;8.40;2.88;;;;;;;;;;6215730;23;20236;-64
2022/02/24 10:45:16;;;;;;;5.20;2.63;;;;;;;;;;6218059;23;20137;-64
2022/02/24 10:47:56;;;;;;;8.88;3.45;;;;;;;;;;6217671;23;20542;-64
2022/02/24 10:50:42;;;;;;;4.95;2.75;;;;;;;;;;6217870;23;20148;-64
2022/02/24 10:53:08;;;;;;;5.50;2.78;;;;;;;;;;6217580;23;20156;-64
2022/02/24 10:55:52;;;;;;;4.35;2.72;;;;;;;;;;6217770;23;20198;-64
2022/02/24 10:58:17;;;;;;;7.63;2.78;;;;;;;;;;6217769;23;20130;-64
2022/02/24 11:00:43;;;;;;;4.70;2.70;;;;;;;;;;6217542;23;20526;-64
2022/02/24 11:03:09;;;;;;;6.57;2.90;;;;;;;;;;6217849;23;20145;-64
2022/02/24 11:05:36;;;;;;;7.57;2.67;;;;;;;;;;6217927;23;20184;-63
2022/02/24 11:08:04;;;;;;;6.72;2.72;;;;;;;;;;6217833;23;20207;-63
2022/02/24 11:10:30;;;;;;;4.43;2.00;;;;;;;;;;6217886;23;20176;-64
2022/02/24 11:12:56;;;;;;;7.65;3.50;;;;;;;;;;6217432;23;20164;-64
2022/02/24 11:15:23;;;;;;;4.78;2.80;;;;;;;;;;6217580;23;20183;-63
2022/02/24 11:17:50;;;;;;;4.60;2.90;;;;;;;;;;6217587;23;20169;-65
2022/02/24 11:20:16;;;;;;;3.90;2.25;;;;;;;;;;6217649;23;20148;-64
2022/02/24 11:22:42;;;;;;;4.70;2.40;;;;;;;;;;6217603;23;20137;-64
2022/02/24 11:25:09;;;;;;;4.47;2.53;;;;;;;;;;6217259;23;20187;-65
2022/02/24 11:27:40;;;;;;;6.53;2.38;;;;;;;;;;6217277;23;20144;-64
2022/02/24 11:30:07;;;;;;;5.32;2.22;;;;;;;;;;6217730;23;20137;-64
2022/02/24 11:32:34;;;;;;;3.08;2.13;;;;;;;;;;6217740;23;20172;-64
2022/02/24 11:35:07;;;;;;;4.13;2.10;;;;;;;;;;6217058;23;20228;-64
2022/02/24 11:37:47;;;;;;;4.68;2.00;;;;;;;;;;6217434;23;20168;-65
2022/02/24 11:40:20;;;;;;;8.85;2.50;;;;;;;;;;6217251;23;20463;-64
2022/02/24 11:43:00;;;;;;;3.50;2.20;;;;;;;;;;6217266;23;20137;-64
2022/02/24 11:45:26;;;;;;;6.35;2.53;;;;;;;;;;6217403;23;20208;-65
2022/02/24 11:47:55;;;;;;;4.70;1.95;;;;;;;;;;6217430;23;20145;-62
2022/02/24 11:50:29;;;;;;;4.03;2.17;;;;;;;;;;6217428;23;20145;-64
2022/02/24 11:52:55;;;;;;;6.72;2.15;;;;;;;;;;6217749;23;20501;-64
2022/02/24 11:55:44;;;;;;;4.80;2.17;;;;;;;;;;6218404;23;20144;-65
2022/02/24 11:58:29;;;;;;;5.97;2.40;;;;;;;;;;6216565;23;20231;-65
2022/02/24 12:01:13;;;;;;;5.13;2.50;;;;;;;;;;6216986;23;20164;-65
2022/02/24 12:03:45;;;;;;;7.90;2.40;;;;;;;;;;6216995;23;20631;-64
2022/02/24 12:06:12;;;;;;;6.43;2.42;;;;;;;;;;6217212;23;20477;-64
2022/02/24 12:08:57;;;;;;;3.42;1.85;;;;;;;;;;6217335;23;20138;-65
2022/02/24 12:11:39;;;;;;;3.40;1.92;;;;;;;;;;6216881;23;20148;-64
2022/02/24 12:14:20;;;;;;;4.97;2.40;;;;;;;;;;6217013;23;20192;-64
2022/02/24 12:17:04;;;;;;;6.72;2.55;;;;;;;;;;6217478;23;20155;-64
2022/02/24 12:19:48;;;;;;;7.57;2.50;;;;;;;;;;6217108;23;20144;-64
2022/02/24 12:22:27;;;;;;;4.28;2.17;;;;;;;;;;6216714;23;20591;-63
2022/02/24 12:24:55;;;;;;;4.68;2.40;;;;;;;;;;6216385;23;20401;-63
2022/02/24 12:27:28;;;;;;;4.78;2.20;;;;;;;;;;6216505;23;20148;-63
2022/02/24 12:29:57;;;;;;;6.97;2.63;;;;;;;;;;6216868;23;20138;-63
2022/02/24 12:32:24;;;;;;;6.70;3.15;;;;;;;;;;6216366;23;20182;-64
2022/02/24 12:34:49;;;;;;;4.55;2.45;;;;;;;;;;6216990;23;20221;-63
2022/02/24 12:37:17;;;;;;;6.68;2.53;;;;;;;;;;6216421;23;20176;-63
2022/02/24 12:39:43;;;;;;;6.07;2.80;;;;;;;;;;6217021;23;20237;-64
2022/02/24 12:42:10;;;;;;;4.80;2.75;;;;;;;;;;6216664;23;20196;-64
2022/02/24 12:44:36;;;;;;;5.30;2.50;;;;;;;;;;6216716;23;20228;-64
2022/02/24 12:47:03;;;;;;;9.40;2.83;;;;;;;;;;6216357;23;20604;-64
2022/02/24 12:49:40;;;;;;;5.72;2.85;;;;;;;;;;6216550;23;20446;-64
2022/02/24 12:52:06;;;;;;;9.18;2.88;;;;;;;;;;6216746;23;20184;-64
2022/02/24 12:54:32;;;;;;;5.30;2.92;;;;;;;;;;6216868;23;20174;-64
2022/02/24 12:57:04;;;;;;;5.75;2.45;;;;;;;;;;6216735;23;20141;-65
2022/02/24 12:59:30;;;;;;;6.45;3.13;;;;;;;;;;6216992;23;20207;-65
2022/02/24 13:01:57;;;;;;;5.78;2.65;;;;;;;;;;6216491;23;20176;-64
2022/02/24 13:04:23;;;;;;;5.28;2.72;;;;;;;;;;6216460;23;20141;-65
2022/02/24 13:06:48;;;;;;;6.00;2.85;;;;;;;;;;6216721;23;20195;-64
2022/02/24 13:12:03;;;;;;;5.25;2.22;;;;;;;;;;6216348;23;20492;-64
2022/02/24 13:14:30;;;;;;;7.25;2.38;;;;;;;;;;6216493;23;20160;-64
2022/02/24 13:16:56;;;;;;;3.97;2.50;;;;;;;;;;6216390;23;20147;-65
2022/02/24 13:19:22;;;;;;;6.80;2.22;;;;;;;;;;6217291;23;20141;-63
2022/02/24 13:21:57;;;;;;;5.53;2.67;;;;;;;;;;6216663;23;20208;-65
2022/02/24 13:24:27;;;;;;;4.35;2.25;;;;;;;;;;6216460;23;20443;-64
2022/02/24 13:26:54;;;;;;;7.57;3.20;;;;;;;;;;6216735;23;20148;-65
2022/02/24 13:29:21;;;;;;;6.32;2.63;;;;;;;;;;6216596;23;20211;-64
2022/02/24 13:31:48;;;;;;;3.92;2.20;;;;;;;;;;6217314;23;20161;-65
2022/02/24 13:34:14;;;;;;;4.88;2.50;;;;;;;;;;6217444;23;20152;-65
2022/02/24 13:36:40;;;;;;;7.25;2.63;;;;;;;;;;6217079;23;20507;-64
2022/02/24 13:39:06;;;;;;;5.30;2.70;;;;;;;;;;6220142;23;20148;-65
2022/02/24 13:41:32;;;;;;;6.85;2.88;;;;;;;;;;6216211;23;20473;-65
2022/02/24 13:43:59;;;;;;;6.45;2.58;;;;;;;;;;6216510;23;20141;-64
2022/02/24 13:46:39;;;;;;;5.40;2.67;;;;;;;;;;6216559;23;20195;-64
2022/02/24 13:49:09;;;;;;;3.53;2.35;;;;;;;;;;6216789;23;20143;-64
2022/02/24 13:51:35;;;;;;;5.65;2.58;;;;;;;;;;6216188;23;20568;-64
2022/02/24 13:54:01;;;;;;;6.97;2.63;;;;;;;;;;6216558;23;20144;-66
2022/02/24 13:56:27;;;;;;;7.50;2.40;;;;;;;;;;6216138;23;20178;-65
2022/02/24 13:59:00;;;;;;;6.32;2.15;;;;;;;;;;6216455;23;20215;-65
2022/02/24 14:01:29;;;;;;;5.22;2.20;;;;;;;;;;6218507;23;20561;-64
2022/02/24 14:03:56;;;;;;;5.05;2.63;;;;;;;;;;6218538;23;20155;-63
2022/02/24 14:06:28;;;;;;;7.95;2.80;;;;;;;;;;6218103;23;20152;-64
2022/02/24 14:08:54;;;;;;;4.72;2.60;;;;;;;;;;6218768;23;20163;-64
2022/02/24 14:11:24;;;;;;;5.00;2.40;;;;;;;;;;6218205;23;20510;-64
2022/02/24 14:13:50;;;;;;;6.07;2.20;;;;;;;;;;6218633;23;20295;-65
2022/02/24 14:16:16;;;;;;;4.72;2.38;;;;;;;;;;6218234;23;20140;-64
2022/02/24 14:18:42;;;;;;;4.50;2.30;;;;;;;;;;6218253;23;20156;-63
2022/02/24 14:21:09;;;;;;;4.13;2.20;;;;;;;;;;6218298;23;20275;-64
2022/02/24 14:23:35;;;;;;;4.55;2.10;;;;;;;;;;6218453;23;20145;-64
2022/02/24 14:26:01;;;;;;;6.00;2.35;;;;;;;;;;6218442;23;20184;-64
2022/02/24 14:28:28;;;;;;;3.42;2.42;;;;;;;;;;6218204;23;20221;-64
2022/02/24 14:30:54;;;;;;;6.53;2.55;;;;;;;;;;6217993;23;20533;-64
2022/02/24 14:33:20;;;;;;;4.47;2.35;;;;;;;;;;6218542;23;20573;-64
2022/02/24 14:35:47;;;;;;;5.22;2.55;;;;;;;;;;6218000;23;20169;-63
2022/02/24 14:38:13;;;;;;;6.40;2.55;;;;;;;;;;6218005;23;20148;-64
2022/02/24 14:40:39;;;;;;;5.47;2.33;;;;;;;;;;6217833;23;20169;-63
2022/02/24 14:43:05;;;;;;;5.43;2.65;;;;;;;;;;6218256;23;20455;-64
2022/02/24 14:45:31;;;;;;;5.85;2.28;;;;;;;;;;6218100;23;20206;-63